Latest Weather Observations for Lihou Reef Lighthouse

IDQ60801

Issued at 7:32 pm EST Friday 16 November 2018 (issued every 10 minutes, with the page automatically refreshed every 10 minutes)

About weather observations | Map of weather stations | Latest weather observations for QLD | Other Formats
Station Details ID: 200880 Name: LIHOU REEF LIGHTHOUSE Lat: -17.13 Lon: 152.15 Height: 0.0 m
Data from the previous 72 hours. | See also: Recent months at Lihou Reef Lighthouse
Date/Time
EST
Temp
°C
App
Temp
°C
Dew
Point
°C
Rel
Hum
%
Delta-T
°C
Wind Press
QNH
hPa
Press
MSL
hPa
Rain since
9am
mm
Dir  Spd
km/h
Gust
km/h
Spd
kts
Gust
kts
16/07:30pm 25.7 - - - - SSE 30 39 16 21 1012.2 1012.1 -
16/07:00pm 25.9 - - - - SSE 24 30 13 16 1012.1 1012.0 -
16/06:30pm 25.7 - - - - SE 26 33 14 18 1011.8 1011.7 -
16/06:00pm 25.9 - - - - SE 26 30 14 16 1011.7 1011.6 -
16/05:30pm 25.9 - - - - SE 26 30 14 16 1011.5 1011.4 -
16/05:00pm 26.2 - - - - SE 28 33 15 18 1011.1 1011.0 -
16/04:30pm 26.1 - - - - SE 28 33 15 18 1010.8 1010.7 -
16/04:00pm 26.2 - - - - SE 26 32 14 17 1010.7 1010.6 -
16/03:30pm 25.9 - - - - SSE 26 32 14 17 1010.8 1010.7 -
16/03:00pm 25.9 - - - - SE 28 32 15 17 1010.9 1010.8 -
16/02:30pm 26.0 - - - - SE 28 33 15 18 1011.0 1010.9 -
16/02:00pm 25.9 - - - - SE 26 30 14 16 1011.2 1011.1 -
16/01:30pm 25.8 - - - - SSE 26 30 14 16 1011.6 1011.5 -
16/01:00pm 25.8 - - - - SSE 28 33 15 18 1011.8 1011.7 -
16/12:30pm 25.9 - - - - SE 24 28 13 15 1012.2 1012.1 -
16/12:00pm 25.9 - - - - SE 22 24 12 13 1012.6 1012.5 -
16/11:30am 26.1 - - - - SE 20 26 11 14 1012.8 1012.7 -
16/11:00am 25.9 - - - - SE 22 24 12 13 1013.2 1013.1 -
16/10:30am 26.0 - - - - SE 22 24 12 13 1013.5 1013.4 -
16/10:00am 26.0 - - - - SE 22 30 12 16 1013.8 1013.7 -
16/09:30am 25.7 - - - - SE 24 28 13 15 1013.9 1013.8 -
16/09:00am 26.0 - - - - SE 22 30 12 16 1013.9 1013.8 -
16/08:30am 25.7 - - - - SE 24 30 13 16 1013.8 1013.7 -
16/08:00am 25.7 - - - - SE 26 32 14 17 1013.8 1013.7 -
16/07:30am 25.6 - - - - SE 26 33 14 18 1013.7 1013.6 -
16/07:00am 25.8 - - - - SE 26 32 14 17 1013.5 1013.4 -
16/06:30am 25.5 - - - - SE 26 30 14 16 1013.2 1013.1 -
16/06:00am 25.4 - - - - SE 28 32 15 17 1012.9 1012.8 -
16/05:30am 25.4 - - - - SE 28 32 15 17 1012.9 1012.8 -
16/05:00am 25.3 - - - - SE 28 33 15 18 1012.8 1012.7 -
16/04:30am 25.5 - - - - SE 30 33 16 18 1012.6 1012.5 -
16/04:00am 25.4 - - - - SE 28 33 15 18 1012.4 1012.3 -
16/03:30am 25.4 - - - - SE 28 33 15 18 1012.1 1012.0 -
16/03:00am 25.3 - - - - SE 30 33 16 18 1012.0 1011.9 -
16/02:30am 25.4 - - - - SE 30 35 16 19 1011.8 1011.7 -
16/02:00am 25.6 - - - - SE 28 32 15 17 1012.1 1012.0 -
16/01:30am 25.6 - - - - SE 28 32 15 17 1012.4 1012.3 -
16/01:00am 25.5 - - - - SE 28 35 15 19 1012.6 1012.5 -
16/12:30am 25.7 - - - - SE 30 33 16 18 1013.1 1013.0 -
16/12:00am 25.7 - - - - SE 30 35 16 19 1013.4 1013.3 -
 
Date/Time
EST
Temp
°C
App
Temp
°C
Dew
Point
°C
Rel
Hum
%
Delta-T
°C
Wind Press
QNH
hPa
Press
MSL
hPa
Rain since
9am
mm
Dir  Spd
km/h
Gust
km/h
Spd
kts
Gust
kts
15/11:30pm 25.6 - - - - SE 30 33 16 18 1013.9 1013.8 -
15/11:00pm 25.9 - - - - SSE 32 39 17 21 1014.2 1014.1 -
15/10:30pm 25.9 - - - - SSE 30 37 16 20 1014.4 1014.3 -
15/10:00pm 25.8 - - - - SE 30 33 16 18 1014.6 1014.5 -
15/09:30pm 25.8 - - - - SE 30 35 16 19 1014.6 1014.5 -
15/09:00pm 25.8 - - - - SE 30 35 16 19 1014.5 1014.4 -
15/08:30pm 26.0 - - - - SE 28 33 15 18 1014.6 1014.5 -
15/08:00pm 26.0 - - - - SE 30 35 16 19 1014.3 1014.2 -
15/07:30pm 26.0 - - - - SE 30 35 16 19 1014.0 1013.9 -
15/07:00pm 25.9 - - - - SE 32 35 17 19 1013.7 1013.6 -
15/06:30pm 26.1 - - - - SE 30 33 16 18 1013.4 1013.3 -
15/06:00pm 26.1 - - - - SE 28 35 15 19 1013.2 1013.1 -
15/05:30pm 26.1 - - - - SE 30 35 16 19 1012.7 1012.6 -
15/05:00pm 26.3 - - - - SE 28 33 15 18 1012.4 1012.3 -
15/04:30pm 26.3 - - - - SSE 30 33 16 18 1012.0 1011.9 -
15/04:00pm 26.3 - - - - SE 26 32 14 17 1012.0 1011.9 -
15/03:30pm 26.1 - - - - SE 28 32 15 17 1011.9 1011.8 -
15/03:00pm 26.3 - - - - SE 24 30 13 16 1012.1 1012.0 -
15/02:30pm 26.4 - - - - SE 26 32 14 17 1012.2 1012.1 -
15/02:00pm 26.1 - - - - SE 26 28 14 15 1012.3 1012.2 -
15/01:30pm 26.4 - - - - SE 24 30 13 16 1012.5 1012.4 -
15/01:00pm 26.1 - - - - SE 26 32 14 17 1012.6 1012.5 -
15/12:30pm 26.1 - - - - SE 24 30 13 16 1012.9 1012.8 -
15/12:00pm 26.1 - - - - SE 24 28 13 15 1013.3 1013.2 -
15/11:30am 25.8 - - - - SSE 22 26 12 14 1013.7 1013.6 -
15/11:00am 25.9 - - - - SSE 22 26 12 14 1014.1 1014.0 -
15/10:30am 26.1 - - - - SSE 26 30 14 16 1014.3 1014.2 -
15/10:00am 26.1 - - - - SE 22 26 12 14 1014.4 1014.3 -
15/09:30am 26.4 - - - - SE 22 30 12 16 1014.5 1014.4 -
15/09:00am 26.4 - - - - SE 20 24 11 13 1014.5 1014.4 -
15/08:30am 26.2 - - - - SE 22 28 12 15 1014.4 1014.3 -
15/08:00am 26.2 - - - - SE 22 28 12 15 1014.0 1013.9 -
15/07:30am 26.2 - - - - SE 20 24 11 13 1014.1 1014.0 -
15/07:00am 26.2 - - - - SE 22 26 12 14 1013.9 1013.8 -
15/06:30am 25.8 - - - - ESE 24 30 13 16 1013.7 1013.6 -
15/06:00am 25.4 - - - - SE 26 30 14 16 1013.3 1013.2 -
15/05:30am 25.5 - - - - ESE 24 28 13 15 1013.0 1012.9 -
15/05:00am 25.1 - - - - ESE 24 30 13 16 1012.6 1012.5 -
15/04:30am 25.1 - - - - E 22 32 12 17 1012.6 1012.5 -
15/04:00am 25.5 - - - - SE 17 20 9 11 1012.4 1012.3 -
15/03:30am 25.4 - - - - ESE 22 26 12 14 1012.0 1011.9 -
15/03:00am 24.6 - - - - ESE 35 43 19 23 1011.9 1011.8 -
15/02:46am 24.8 - - - - ESE 37 46 20 25 1011.7 1011.6 -
15/02:30am 25.6 - - - - SE 22 26 12 14 1011.9 1011.8 -
15/02:00am 25.6 - - - - ESE 22 26 12 14 1011.9 1011.8 -
15/01:30am 25.6 - - - - SE 26 30 14 16 1012.5 1012.4 -
15/01:00am 25.7 - - - - SE 26 30 14 16 1012.7 1012.6 -
15/12:30am 25.7 - - - - SE 26 32 14 17 1013.1 1013.0 -
 
Date/Time
EST
Temp
°C
App
Temp
°C
Dew
Point
°C
Rel
Hum
%
Delta-T
°C
Wind Press
QNH
hPa
Press
MSL
hPa
Rain since
9am
mm
Dir  Spd
km/h
Gust
km/h
Spd
kts
Gust
kts
14/11:30pm 26.0 - - - - SE 24 30 13 16 1013.9 1013.8 -
14/11:00pm 26.2 - - - - SE 26 32 14 17 1014.1 1014.0 -
14/10:30pm 25.9 - - - - SE 28 35 15 19 1014.1 1014.0 -
14/10:00pm 25.9 - - - - SE 32 37 17 20 1014.1 1014.0 -
14/09:30pm 26.0 - - - - SE 26 32 14 17 1014.2 1014.1 -
14/09:00pm 26.0 - - - - SE 28 32 15 17 1014.1 1014.0 -
14/08:30pm 26.1 - - - - SE 30 35 16 19 1013.9 1013.8 -
14/08:00pm 25.9 - - - - SE 30 33 16 18 1013.6 1013.5 -
14/07:30pm 26.1 - - - - SE 32 35 17 19 1013.2 1013.1 -
14/07:00pm 26.2 - - - - SE 28 33 15 18 1013.1 1013.0 -
14/06:30pm 26.2 - - - - SE 28 33 15 18 1012.8 1012.7 -
14/06:00pm 26.2 - - - - SE 30 35 16 19 1012.6 1012.5 -
14/05:30pm 26.4 - - - - SE 28 32 15 17 1012.3 1012.2 -
14/05:00pm 26.4 - - - - SE 28 33 15 18 1012.1 1012.0 -
14/04:30pm 26.6 - - - - SE 26 33 14 18 1011.9 1011.8 -
14/04:00pm 26.7 - - - - SE 24 28 13 15 1011.7 1011.6 -
14/03:30pm 26.6 - - - - SE 26 30 14 16 1011.5 1011.4 -
14/03:00pm 26.7 - - - - SE 24 30 13 16 1011.3 1011.2 -
14/02:30pm 26.5 - - - - SE 24 28 13 15 1011.4 1011.3 -
14/02:00pm 26.3 - - - - SE 28 30 15 16 1011.6 1011.5 -
14/01:30pm 26.2 - - - - SSE 28 32 15 17 1011.7 1011.6 -
14/01:00pm 26.4 - - - - SE 26 30 14 16 1012.0 1011.9 -
14/12:30pm 26.4 - - - - SE 26 30 14 16 1012.4 1012.3 -
14/12:00pm 26.3 - - - - SE 24 30 13 16 1012.8 1012.7 -
14/11:30am 26.3 - - - - SE 26 32 14 17 1013.1 1013.0 -
14/11:00am 26.5 - - - - SE 24 30 13 16 1013.4 1013.3 -
14/10:30am 26.6 - - - - SE 26 30 14 16 1013.5 1013.4 -
14/10:00am 26.4 - - - - SE 26 30 14 16 1013.7 1013.6 -
14/09:30am 26.5 - - - - SE 26 32 14 17 1013.6 1013.5 -
14/09:00am 26.6 - - - - SE 26 32 14 17 1013.7 1013.6 -
14/08:30am 26.4 - - - - SE 24 28 13 15 1013.8 1013.7 -
14/08:00am 26.2 - - - - SE 26 32 14 17 1013.7 1013.6 -
14/07:30am 26.5 - - - - SE 28 32 15 17 1013.5 1013.4 -
14/07:00am 26.3 - - - - SE 26 30 14 16 1013.2 1013.1 -
14/06:30am 26.2 - - - - SE 26 30 14 16 1013.0 1012.9 -
14/06:00am 26.0 - - - - SE 28 32 15 17 1012.7 1012.6 -
14/05:30am 25.7 - - - - SE 26 30 14 16 1012.2 1012.1 -
14/05:00am 25.9 - - - - SE 26 30 14 16 1011.8 1011.7 -
14/04:30am 25.9 - - - - SE 28 32 15 17 1011.5 1011.4 -
14/04:00am 25.6 - - - - SE 28 33 15 18 1011.2 1011.1 -
14/03:30am 25.9 - - - - SE 30 33 16 18 1010.9 1010.8 -
14/03:00am 25.8 - - - - SE 30 35 16 19 1010.7 1010.6 -
14/02:30am 25.7 - - - - SE 28 33 15 18 1010.7 1010.6 -
14/02:00am 26.0 - - - - SE 28 32 15 17 1010.9 1010.8 -
14/01:30am 25.7 - - - - ESE 28 33 15 18 1011.0 1010.9 -
14/01:00am 25.6 - - - - ESE 30 35 16 19 1011.3 1011.2 -
14/12:30am 25.9 - - - - ESE 30 32 16 17 1011.5 1011.4 -
14/12:00am 25.8 - - - - ESE 30 37 16 20 1011.7 1011.6 -
 
Date/Time
EST
Temp
°C
App
Temp
°C
Dew
Point
°C
Rel
Hum
%
Delta-T
°C
Wind Press
QNH
hPa
Press
MSL
hPa
Rain since
9am
mm
Dir  Spd
km/h
Gust
km/h
Spd
kts
Gust
kts
13/11:30pm 25.9 - - - - ESE 32 37 17 20 1011.9 1011.8 -
13/11:00pm 26.0 - - - - SE 32 37 17 20 1012.1 1012.0 -
13/10:30pm 26.0 - - - - SE 30 33 16 18 1012.5 1012.4 -
13/10:00pm 26.1 - - - - SE 28 33 15 18 1012.5 1012.4 -
13/09:30pm 26.0 - - - - ESE 28 32 15 17 1012.6 1012.5 -
13/09:00pm 26.0 - - - - SE 30 35 16 19 1012.4 1012.3 -
13/08:30pm 25.8 - - - - SE 30 35 16 19 1012.3 1012.2 -
13/08:00pm 26.0 - - - - SE 32 39 17 21 1012.2 1012.1 -

Other Formats:

Comma delimited format used in spreadsheet applications
http://www.bom.gov.au/fwo/IDQ60801/IDQ60801.94293.axf

JavaScript Object Notation format (JSON) in row-major order
http://www.bom.gov.au/fwo/IDQ60801/IDQ60801.94293.json